Time;durP1;ratioP1;P1;durP2;ratioP2;P2;SDS_P1;SDS_P2;PMS_P1;PMS_P2;Temp;Humidity;BMP_temperature;BMP_pressure;BME280_temperature;BME280_humidity;BME280_pressure;Samples;Min_cycle;Max_cycle;Signal;HPM_P1;HPM_P2
2022/09/06 00:01:18;;;;;;;5.43;1.05;;;15.60;99.90;;;;;;5117408;28;20410;-80
2022/09/06 00:03:45;;;;;;;7.70;1.30;;;15.70;99.90;;;;;;5098241;28;20378;-76
2022/09/06 00:06:16;;;;;;;6.82;1.27;;;15.70;99.90;;;;;;5116206;28;20382;-79
2022/09/06 00:08:47;;;;;;;9.02;1.10;;;15.70;99.90;;;;;;5111120;28;20397;-77
2022/09/06 00:11:16;;;;;;;8.18;1.30;;;15.60;99.90;;;;;;5116019;28;20398;-80
2022/09/06 00:13:44;;;;;;;7.43;1.20;;;15.60;99.90;;;;;;5116293;28;20376;-79
2022/09/06 00:16:14;;;;;;;7.70;1.20;;;15.60;99.90;;;;;;5115781;28;20377;-77
2022/09/06 00:18:42;;;;;;;11.15;1.60;;;15.60;99.90;;;;;;5115724;28;20363;-80
2022/09/06 00:21:20;;;;;;;11.50;1.30;;;15.80;99.90;;;;;;5115444;28;20371;-77
2022/09/06 00:23:47;;;;;;;9.50;1.33;;;16.10;99.90;;;;;;5115173;28;20712;-79
2022/09/06 00:26:15;;;;;;;6.55;1.10;;;16.60;98.80;;;;;;5115144;28;20908;-78
2022/09/06 00:28:42;;;;;;;4.22;1.10;;;16.70;97.90;;;;;;5115260;28;20362;-77
2022/09/06 00:31:19;;;;;;;6.47;1.27;;;16.70;96.50;;;;;;5114857;28;20395;-79
2022/09/06 00:33:46;;;;;;;3.70;1.00;;;16.70;97.50;;;;;;5114926;28;20441;-81
2022/09/06 00:36:14;;;;;;;4.63;1.10;;;16.60;98.20;;;;;;5114758;28;20375;-77
2022/09/06 00:38:42;;;;;;;7.95;1.42;;;16.80;97.00;;;;;;5114670;28;20395;-78
2022/09/06 00:41:12;;;;;;;5.63;1.30;;;17.10;97.00;;;;;;5114546;28;20873;-78
2022/09/06 00:43:39;;;;;;;5.90;1.30;;;17.20;95.70;;;;;;5114561;28;20455;-78
2022/09/06 00:46:09;;;;;;;6.75;1.20;;;17.20;95.50;;;;;;5114539;28;20798;-80
2022/09/06 00:48:38;;;;;;;5.90;1.00;;;17.10;95.00;;;;;;5062321;28;20374;-81
2022/09/06 00:51:10;;;;;;;6.28;1.00;;;17.00;94.70;;;;;;5111794;28;20495;-77
2022/09/06 00:53:37;;;;;;;5.90;1.30;;;17.00;94.80;;;;;;5114733;28;20387;-80
2022/09/06 00:56:05;;;;;;;5.63;1.15;;;17.00;95.00;;;;;;5096703;28;20426;-79
2022/09/06 00:58:32;;;;;;;4.45;1.40;;;17.10;95.10;;;;;;5114222;28;20913;-81
2022/09/06 01:01:00;;;;;;;3.95;1.15;;;17.30;94.10;;;;;;5114311;28;20460;-77
2022/09/06 01:03:27;;;;;;;5.60;1.20;;;17.50;92.80;;;;;;5114194;28;20371;-80
2022/09/06 01:06:09;;;;;;;6.40;1.25;;;17.60;92.60;;;;;;5114315;28;20375;-78
2022/09/06 01:08:49;;;;;;;7.25;1.35;;;17.70;92.10;;;;;;5113933;28;20379;-77
2022/09/06 01:11:49;;;;;;;7.03;1.45;;;17.60;91.50;;;;;;5113894;28;20399;-78
2022/09/06 01:14:39;;;;;;;5.65;1.17;;;17.50;91.60;;;;;;5117678;28;20377;-81
2022/09/06 01:17:41;;;;;;;5.28;1.20;;;17.60;91.30;;;;;;5114201;28;20379;-78
2022/09/06 01:20:23;;;;;;;5.35;1.13;;;17.60;91.70;;;;;;5114112;28;20398;-79
2022/09/06 01:23:18;;;;;;;7.57;1.30;;;17.60;90.10;;;;;;5114264;28;20359;-79
2022/09/06 01:26:15;;;;;;;8.40;1.38;;;17.70;90.20;;;;;;5114611;28;20355;-79
2022/09/06 01:28:46;;;;;;;5.63;1.13;;;17.60;89.30;;;;;;5114629;28;20363;-80
2022/09/06 01:31:28;;;;;;;6.03;1.13;;;18.00;87.10;;;;;;5113963;28;20438;-77
2022/09/06 01:34:04;;;;;;;5.32;1.30;;;18.00;84.40;;;;;;5113690;28;20354;-76
2022/09/06 01:36:56;;;;;;;4.93;1.30;;;17.70;86.10;;;;;;5114678;28;20420;-79
2022/09/06 01:39:34;;;;;;;4.67;1.10;;;17.60;88.80;;;;;;5113996;28;20355;-78
2022/09/06 01:42:23;;;;;;;6.00;1.10;;;17.80;85.40;;;;;;5113722;28;20351;-78
2022/09/06 01:45:05;;;;;;;4.88;1.17;;;17.90;85.90;;;;;;5113511;28;20411;-77
2022/09/06 01:48:06;;;;;;;6.18;1.20;;;18.00;85.00;;;;;;5114486;28;20362;-79
2022/09/06 01:50:33;;;;;;;4.35;1.23;;;18.10;86.50;;;;;;5114137;28;20754;-79
2022/09/06 01:53:24;;;;;;;5.47;1.40;;;19.20;84.70;;;;;;5113223;28;20370;-78
2022/09/06 01:56:15;;;;;;;7.00;1.30;;;20.30;84.80;;;;;;5114174;28;20737;-77
2022/09/06 01:58:58;;;;;;;6.10;1.30;;;19.80;83.30;;;;;;5113547;28;20413;-77
2022/09/06 02:01:37;;;;;;;5.25;1.30;;;19.00;86.30;;;;;;5113143;28;20423;-78
2022/09/06 02:04:04;;;;;;;4.57;1.20;;;18.20;90.00;;;;;;5113277;28;20378;-81
2022/09/06 02:06:43;;;;;;;5.10;1.33;;;17.70;91.10;;;;;;5112801;28;20367;-77
2022/09/06 02:09:17;;;;;;;6.05;1.45;;;17.50;91.80;;;;;;5112664;28;20398;-79
2022/09/06 02:12:04;;;;;;;6.10;1.30;;;17.30;92.70;;;;;;5112803;28;20383;-78
2022/09/06 02:14:37;;;;;;;4.68;1.40;;;16.90;93.30;;;;;;5112940;28;20362;-77
2022/09/06 02:17:08;;;;;;;5.65;1.40;;;16.70;94.60;;;;;;5112618;28;20929;-81
2022/09/06 02:19:42;;;;;;;6.90;1.77;;;16.50;94.90;;;;;;5112771;28;20854;-78
2022/09/06 02:22:14;;;;;;;4.75;1.20;;;16.50;95.40;;;;;;5113059;28;20374;-78
2022/09/06 02:24:44;;;;;;;4.90;1.23;;;16.30;95.00;;;;;;5112712;28;20406;-77
2022/09/06 02:27:13;;;;;;;4.07;1.40;;;16.30;95.50;;;;;;5112681;28;20754;-77
2022/09/06 02:29:43;;;;;;;6.05;1.50;;;16.30;95.50;;;;;;5112452;28;20803;-79
2022/09/06 02:32:25;;;;;;;5.53;1.50;;;16.20;96.00;;;;;;5112633;28;20367;-78
2022/09/06 02:34:55;;;;;;;4.95;1.40;;;16.20;96.00;;;;;;5112967;28;20735;-79
2022/09/06 02:37:27;;;;;;;7.73;1.57;;;16.20;96.20;;;;;;5112726;28;20402;-78
2022/09/06 02:39:55;;;;;;;6.38;1.40;;;16.30;96.20;;;;;;5112753;28;20450;-81
2022/09/06 02:42:23;;;;;;;5.13;1.40;;;16.30;96.70;;;;;;5113056;28;20441;-79
2022/09/06 02:44:50;;;;;;;4.85;1.50;;;16.20;96.70;;;;;;5113235;28;20382;-79
2022/09/06 02:47:18;;;;;;;7.18;1.50;;;16.30;96.90;;;;;;5118796;28;20449;-75
2022/09/06 02:49:45;;;;;;;8.52;1.67;;;16.30;97.00;;;;;;5115757;28;20379;-78
2022/09/06 02:52:12;;;;;;;6.22;1.60;;;16.40;96.60;;;;;;5112774;28;20382;-79
2022/09/06 02:54:39;;;;;;;7.40;1.70;;;16.50;96.90;;;;;;5112863;28;20918;-80
2022/09/06 02:57:06;;;;;;;6.35;1.50;;;16.50;96.90;;;;;;5094287;28;20393;-79
2022/09/06 02:59:33;;;;;;;7.15;1.70;;;16.60;96.90;;;;;;5112684;28;20371;-79
2022/09/06 03:02:00;;;;;;;4.43;1.48;;;16.70;96.20;;;;;;5112315;28;20402;-81
2022/09/06 03:04:27;;;;;;;6.57;1.60;;;16.80;96.20;;;;;;5112596;28;20374;-78
2022/09/06 03:06:56;;;;;;;5.03;1.38;;;16.90;95.60;;;;;;5112586;28;20470;-79
2022/09/06 03:09:23;;;;;;;4.67;1.50;;;17.00;95.20;;;;;;5113575;28;20389;-78
2022/09/06 03:11:51;;;;;;;6.73;1.73;;;17.30;94.80;;;;;;5114447;28;20840;-78
2022/09/06 03:14:18;;;;;;;3.88;1.33;;;17.50;93.50;;;;;;5118634;28;20366;-78
2022/09/06 03:16:45;;;;;;;5.30;1.40;;;17.60;92.90;;;;;;5117318;28;20375;-81
2022/09/06 03:19:13;;;;;;;5.83;1.10;;;17.80;91.80;;;;;;5096373;28;20402;-78
2022/09/06 03:21:40;;;;;;;5.00;1.60;;;17.90;92.40;;;;;;5113432;28;20375;-80
2022/09/06 03:24:07;;;;;;;5.75;1.27;;;18.00;93.00;;;;;;5113142;28;20424;-79
2022/09/06 03:26:34;;;;;;;4.70;1.40;;;18.10;92.60;;;;;;5112976;28;20478;-80
2022/09/06 03:29:01;;;;;;;5.90;1.30;;;18.00;91.50;;;;;;5113422;28;20374;-79
2022/09/06 03:31:28;;;;;;;4.00;1.30;;;18.10;91.80;;;;;;5116685;28;20451;-79
2022/09/06 03:33:55;;;;;;;4.10;1.10;;;18.90;91.60;;;;;;5116257;28;20390;-82
2022/09/06 03:36:22;;;;;;;5.13;1.20;;;20.40;85.80;;;;;;5116199;28;20378;-80
2022/09/06 03:38:50;;;;;;;4.22;1.40;;;22.30;80.10;;;;;;5115998;28;20420;-78
2022/09/06 03:41:17;;;;;;;4.72;1.27;;;23.50;68.80;;;;;;5115794;28;20769;-79
2022/09/06 03:43:44;;;;;;;4.18;1.15;;;23.70;67.50;;;;;;5116372;28;20375;-78
2022/09/06 03:46:11;;;;;;;4.88;1.63;;;24.60;64.40;;;;;;5115681;28;20386;-80
2022/09/06 03:48:38;;;;;;;5.10;2.20;;;24.70;63.00;;;;;;5115536;28;20417;-79
2022/09/06 03:51:05;;;;;;;3.47;1.20;;;23.40;63.40;;;;;;5115494;28;20395;-78
2022/09/06 03:53:32;;;;;;;3.15;1.08;;;21.80;67.20;;;;;;5115548;28;20861;-80
2022/09/06 03:55:59;;;;;;;4.32;1.15;;;20.30;73.10;;;;;;5115491;28;20452;-78
2022/09/06 03:58:30;;;;;;;4.05;1.20;;;19.50;78.00;;;;;;5115471;28;20367;-79
2022/09/06 04:01:03;;;;;;;4.55;1.60;;;18.60;86.20;;;;;;5115282;28;20363;-81
2022/09/06 04:03:30;;;;;;;3.85;1.40;;;17.90;93.30;;;;;;5115439;28;20718;-78
2022/09/06 04:05:58;;;;;;;3.83;1.00;;;17.40;96.50;;;;;;5116165;28;20409;-79
2022/09/06 04:08:25;;;;;;;4.20;0.93;;;17.00;99.20;;;;;;5115310;28;20473;-77
2022/09/06 04:10:57;;;;;;;4.87;1.20;;;16.80;99.90;;;;;;5115083;28;20444;-81
2022/09/06 04:13:26;;;;;;;4.93;1.37;;;16.70;99.90;;;;;;5115145;28;20363;-78
2022/09/06 04:15:53;;;;;;;5.32;1.30;;;16.50;99.90;;;;;;5115030;28;20387;-78
2022/09/06 04:18:21;;;;;;;5.82;1.50;;;16.50;99.90;;;;;;5114956;28;20375;-80
2022/09/06 04:20:49;;;;;;;3.67;1.45;;;16.50;99.90;;;;;;5114967;28;20366;-79
2022/09/06 04:23:17;;;;;;;4.05;1.38;;;16.40;99.90;;;;;;5115412;28;20401;-78
2022/09/06 04:25:53;;;;;;;4.43;1.30;;;16.40;99.90;;;;;;5114918;28;20402;-78
2022/09/06 04:28:21;;;;;;;4.65;1.20;;;16.30;99.90;;;;;;5115441;28;20382;-79
2022/09/06 04:31:00;;;;;;;5.50;1.10;;;16.30;99.90;;;;;;5114841;28;20398;-81
2022/09/06 04:33:28;;;;;;;2.35;0.93;;;16.30;99.90;;;;;;5115231;28;20846;-77
2022/09/06 04:35:58;;;;;;;5.32;1.33;;;16.30;99.90;;;;;;5115170;28;20375;-79
2022/09/06 04:38:26;;;;;;;6.32;2.22;;;16.40;99.90;;;;;;5114620;28;20359;-79
2022/09/06 04:40:57;;;;;;;5.43;1.30;;;16.50;99.90;;;;;;5114961;28;20727;-77
2022/09/06 04:43:24;;;;;;;4.87;1.30;;;16.60;99.90;;;;;;5114364;28;20374;-77
2022/09/06 04:45:51;;;;;;;5.75;1.20;;;16.60;99.90;;;;;;5114332;28;20842;-77
2022/09/06 04:48:19;;;;;;;3.85;1.10;;;16.70;99.90;;;;;;5114432;28;20778;-78
2022/09/06 04:50:46;;;;;;;2.53;1.00;;;16.90;99.90;;;;;;5114277;28;20816;-78
2022/09/06 04:53:13;;;;;;;3.53;1.10;;;17.00;99.90;;;;;;5114544;28;20367;-78
2022/09/06 04:55:40;;;;;;;3.50;1.10;;;17.10;99.90;;;;;;5114601;28;20870;-77
2022/09/06 04:58:07;;;;;;;4.68;1.08;;;17.20;99.90;;;;;;5096087;28;20469;-77
2022/09/06 05:00:37;;;;;;;4.95;1.27;;;17.40;99.90;;;;;;5114536;28;20371;-78
2022/09/06 05:03:05;;;;;;;3.70;1.40;;;17.50;99.90;;;;;;5096180;28;20555;-77
2022/09/06 05:05:32;;;;;;;3.30;1.37;;;17.60;99.90;;;;;;5111207;28;20387;-80
2022/09/06 05:07:59;;;;;;;3.78;1.10;;;17.80;99.90;;;;;;5113727;28;20870;-78
2022/09/06 05:10:26;;;;;;;4.43;1.10;;;18.20;99.90;;;;;;5113919;28;20766;-78
2022/09/06 05:12:54;;;;;;;2.55;0.90;;;18.30;99.20;;;;;;5114049;28;20374;-79
2022/09/06 05:15:22;;;;;;;2.58;1.00;;;18.40;98.40;;;;;;5114195;28;20375;-80
2022/09/06 05:17:50;;;;;;;3.77;1.00;;;19.10;97.10;;;;;;5113735;28;20363;-79
2022/09/06 05:20:17;;;;;;;2.40;0.97;;;20.20;93.10;;;;;;5113731;28;20371;-80
2022/09/06 05:22:53;;;;;;;3.88;1.10;;;20.50;90.70;;;;;;5113903;28;20478;-79
2022/09/06 05:25:20;;;;;;;3.15;1.05;;;20.60;88.60;;;;;;5114388;28;20711;-81
2022/09/06 05:27:48;;;;;;;2.35;0.88;;;20.90;86.00;;;;;;5113709;28;20363;-78
2022/09/06 05:30:16;;;;;;;3.47;0.90;;;20.80;84.40;;;;;;5113617;28;20758;-78
2022/09/06 05:32:45;;;;;;;3.65;0.90;;;20.20;84.90;;;;;;5113600;28;20428;-77
2022/09/06 05:35:12;;;;;;;2.67;0.95;;;19.60;86.50;;;;;;5113521;28;20371;-79
2022/09/06 05:37:39;;;;;;;4.03;0.95;;;19.10;88.50;;;;;;5113219;28;20905;-78
2022/09/06 05:40:07;;;;;;;3.97;1.10;;;18.50;90.60;;;;;;5113323;28;20366;-78
2022/09/06 05:42:34;;;;;;;2.72;0.90;;;18.10;92.30;;;;;;5113503;28;20374;-77
2022/09/06 05:45:01;;;;;;;4.82;1.15;;;18.00;93.60;;;;;;5113421;28;20387;-81
2022/09/06 05:47:32;;;;;;;3.70;1.00;;;18.00;94.60;;;;;;5095038;28;20390;-78
2022/09/06 05:49:59;;;;;;;4.28;1.10;;;18.10;95.20;;;;;;5113024;28;20396;-74
2022/09/06 05:52:26;;;;;;;3.05;0.90;;;18.20;94.90;;;;;;5112445;28;20468;-75
2022/09/06 05:54:53;;;;;;;3.83;0.95;;;18.40;94.50;;;;;;5113145;28;20369;-77
2022/09/06 05:57:20;;;;;;;3.47;1.13;;;18.40;94.40;;;;;;5113240;28;20471;-77
2022/09/06 05:59:47;;;;;;;2.47;1.00;;;18.50;94.00;;;;;;5113230;28;20915;-77
2022/09/06 06:02:14;;;;;;;3.33;0.90;;;18.50;94.20;;;;;;5113299;28;20869;-77
2022/09/06 06:04:42;;;;;;;3.05;0.93;;;18.40;94.60;;;;;;5113031;28;20772;-76
2022/09/06 06:07:09;;;;;;;2.35;0.75;;;18.20;94.90;;;;;;5113045;28;20363;-76
2022/09/06 06:09:36;;;;;;;4.07;1.10;;;18.10;94.70;;;;;;5113308;28;20406;-75
2022/09/06 06:12:03;;;;;;;3.20;0.90;;;17.90;95.10;;;;;;5113848;28;20504;-76
2022/09/06 06:14:34;;;;;;;5.40;1.00;;;17.70;96.50;;;;;;5117424;28;20395;-75
2022/09/06 06:17:01;;;;;;;4.15;1.00;;;17.50;97.90;;;;;;5118677;28;20374;-75
2022/09/06 06:19:30;;;;;;;2.85;0.90;;;17.30;98.20;;;;;;5116262;28;20370;-76
2022/09/06 06:21:57;;;;;;;2.78;0.77;;;17.20;99.00;;;;;;5112194;28;20379;-76
2022/09/06 06:24:24;;;;;;;3.42;0.80;;;17.00;99.50;;;;;;5095839;28;20459;-74
2022/09/06 06:26:52;;;;;;;3.88;0.90;;;16.80;99.80;;;;;;5114250;28;20367;-78
2022/09/06 06:29:19;;;;;;;2.47;1.00;;;16.70;99.90;;;;;;5113454;28;20460;-75
2022/09/06 06:31:46;;;;;;;2.22;0.77;;;16.50;99.90;;;;;;5113336;28;20406;-75
2022/09/06 06:34:15;;;;;;;2.97;0.95;;;16.40;99.90;;;;;;5111669;28;20375;-78
2022/09/06 06:36:43;;;;;;;2.90;1.20;;;16.40;99.90;;;;;;5115051;28;20390;-76
2022/09/06 06:39:10;;;;;;;3.70;1.50;;;16.30;99.90;;;;;;5114777;28;20837;-77
2022/09/06 06:41:43;;;;;;;2.95;1.40;;;16.20;99.90;;;;;;5114084;28;20458;-76
2022/09/06 06:44:10;;;;;;;3.27;1.07;;;16.10;99.90;;;;;;5079693;28;20388;-77
2022/09/06 06:46:39;;;;;;;3.03;0.85;;;16.10;99.90;;;;;;5116312;28;20454;-78
2022/09/06 06:49:06;;;;;;;2.53;0.80;;;16.10;99.90;;;;;;5115131;28;20379;-79
2022/09/06 06:51:38;;;;;;;2.33;0.80;;;16.10;99.90;;;;;;5096019;28;20403;-79
2022/09/06 06:54:06;;;;;;;3.03;0.90;;;16.10;99.90;;;;;;5113525;28;20392;-76
2022/09/06 06:56:36;;;;;;;3.67;1.00;;;16.10;99.90;;;;;;5113149;28;20386;-79
2022/09/06 06:59:05;;;;;;;3.27;1.10;;;16.10;99.90;;;;;;5095812;28;20383;-80
2022/09/06 07:01:34;;;;;;;3.42;1.02;;;16.10;99.90;;;;;;5114117;28;20394;-77
2022/09/06 07:04:01;;;;;;;2.10;1.00;;;16.00;99.90;;;;;;5116017;28;20378;-75
2022/09/06 07:06:29;;;;;;;2.63;0.90;;;15.80;99.90;;;;;;5117363;28;20358;-78
2022/09/06 07:08:58;;;;;;;3.05;0.80;;;15.80;99.90;;;;;;5117049;28;20394;-74
2022/09/06 07:11:25;;;;;;;4.72;1.00;;;15.70;99.90;;;;;;5117313;28;20402;-74
2022/09/06 07:13:52;;;;;;;4.53;1.05;;;15.60;99.90;;;;;;5101557;28;20402;-78
2022/09/06 07:16:22;;;;;;;3.37;1.07;;;15.50;99.90;;;;;;5119408;28;20442;-77
2022/09/06 07:18:54;;;;;;;2.73;1.03;;;15.40;99.90;;;;;;5118579;28;20838;-74
2022/09/06 07:21:25;;;;;;;2.85;1.05;;;15.30;99.90;;;;;;5104477;28;20371;-77
2022/09/06 07:23:54;;;;;;;3.20;1.20;;;15.20;99.90;;;;;;5117597;28;20749;-75
2022/09/06 07:26:24;;;;;;;3.20;1.15;;;15.10;99.90;;;;;;5128375;28;20373;-78
2022/09/06 07:28:55;;;;;;;3.95;1.20;;;15.00;99.90;;;;;;5128353;28;20378;-75
2022/09/06 07:31:23;;;;;;;6.35;1.13;;;15.00;99.90;;;;;;5124214;28;20395;-76
2022/09/06 07:33:50;;;;;;;5.93;1.40;;;14.90;99.90;;;;;;5128837;28;20379;-77
2022/09/06 07:36:17;;;;;;;4.18;1.30;;;14.80;99.90;;;;;;5132413;28;20385;-76
2022/09/06 07:38:48;;;;;;;4.60;1.30;;;14.80;99.90;;;;;;5126249;28;20375;-76
2022/09/06 07:41:17;;;;;;;5.38;1.30;;;14.70;99.90;;;;;;5116708;28;20377;-76
2022/09/06 07:43:44;;;;;;;5.35;1.23;;;14.60;99.90;;;;;;5116677;28;20877;-76
2022/09/06 07:46:14;;;;;;;3.60;1.00;;;14.60;99.90;;;;;;5115811;28;20442;-75
2022/09/06 07:48:43;;;;;;;4.45;1.00;;;14.50;99.90;;;;;;5116456;28;20409;-77
2022/09/06 07:51:19;;;;;;;3.00;1.00;;;14.40;99.90;;;;;;5115931;28;20405;-77
2022/09/06 07:53:54;;;;;;;3.00;1.10;;;14.30;99.90;;;;;;5115761;28;20358;-77
2022/09/06 07:56:22;;;;;;;3.50;0.90;;;14.20;99.90;;;;;;5115652;28;20375;-80
2022/09/06 07:58:51;;;;;;;3.47;1.07;;;14.10;99.90;;;;;;5115926;28;20859;-76
2022/09/06 08:01:29;;;;;;;2.35;0.82;;;14.10;99.90;;;;;;5115792;28;20394;-77
2022/09/06 08:04:11;;;;;;;3.78;1.00;;;14.00;99.90;;;;;;5115814;28;20739;-77
2022/09/06 08:06:49;;;;;;;4.60;1.37;;;14.10;99.90;;;;;;5117377;28;20768;-74
2022/09/06 08:09:19;;;;;;;4.35;1.00;;;14.00;99.90;;;;;;5116195;28;20873;-77
2022/09/06 08:11:47;;;;;;;2.78;0.90;;;14.00;99.90;;;;;;5112975;28;20498;-77
2022/09/06 08:14:14;;;;;;;5.70;1.30;;;14.00;99.90;;;;;;5080270;28;20386;-78
2022/09/06 08:16:41;;;;;;;3.58;1.10;;;14.00;99.90;;;;;;5116085;28;20453;-77
2022/09/06 08:19:11;;;;;;;3.05;1.10;;;13.90;99.90;;;;;;5115214;28;20504;-77
2022/09/06 08:21:38;;;;;;;3.78;1.10;;;13.90;99.90;;;;;;5115623;28;20371;-75
2022/09/06 08:24:08;;;;;;;3.97;1.30;;;13.90;99.90;;;;;;5115507;28;20378;-75
2022/09/06 08:26:41;;;;;;;4.47;1.20;;;13.80;99.90;;;;;;5115055;28;20370;-79
2022/09/06 08:29:09;;;;;;;7.20;1.30;;;13.80;99.90;;;;;;5115015;28;20369;-79
2022/09/06 08:31:42;;;;;;;8.68;1.42;;;13.70;99.90;;;;;;5114630;28;20750;-77
2022/09/06 08:34:11;;;;;;;5.85;1.50;;;13.70;99.90;;;;;;5096185;28;20865;-75
2022/09/06 08:36:39;;;;;;;4.07;1.17;;;13.70;99.90;;;;;;5114435;28;20387;-78
2022/09/06 08:39:08;;;;;;;4.38;1.23;;;13.60;99.90;;;;;;5114558;28;20767;-77
2022/09/06 08:41:53;;;;;;;6.22;1.17;;;13.60;99.90;;;;;;5096282;28;20465;-77
2022/09/06 08:44:26;;;;;;;2.65;1.10;;;13.50;99.90;;;;;;5115071;28;20362;-78
2022/09/06 08:47:01;;;;;;;4.05;1.20;;;13.40;99.90;;;;;;5115198;28;20410;-75
2022/09/06 08:49:38;;;;;;;4.18;1.38;;;13.40;99.90;;;;;;5114813;28;20355;-77
2022/09/06 08:52:20;;;;;;;4.65;1.38;;;13.30;99.90;;;;;;5114867;28;20722;-77
2022/09/06 08:54:56;;;;;;;3.67;1.25;;;13.30;99.90;;;;;;5116553;28;20451;-79
2022/09/06 08:57:44;;;;;;;3.17;1.30;;;13.20;99.90;;;;;;5116509;28;20444;-78
2022/09/06 09:00:13;;;;;;;5.57;1.50;;;13.20;99.90;;;;;;5117994;28;20362;-81
2022/09/06 09:02:46;;;;;;;4.43;1.40;;;13.10;99.90;;;;;;5116082;28;20386;-75
2022/09/06 09:05:29;;;;;;;5.40;1.40;;;13.00;99.90;;;;;;5098597;28;20710;-80
2022/09/06 09:08:04;;;;;;;4.60;1.40;;;13.00;99.90;;;;;;5116328;28;20499;-77
2022/09/06 09:10:54;;;;;;;6.30;1.52;;;12.90;99.90;;;;;;5118048;28;20406;-76
2022/09/06 09:13:43;;;;;;;4.70;1.40;;;12.80;99.90;;;;;;5073402;28;20402;-78
2022/09/06 09:16:10;;;;;;;5.78;1.65;;;12.70;99.90;;;;;;5074152;28;20393;-78
2022/09/06 09:18:41;;;;;;;6.20;2.10;;;12.60;99.90;;;;;;5074609;28;20392;-81
2022/09/06 09:21:11;;;;;;;9.32;4.65;;;12.50;99.90;;;;;;5077197;28;20385;-76
2022/09/06 09:23:38;;;;;;;26.83;17.90;;;12.50;99.90;;;;;;5060968;28;20901;-78
2022/09/06 09:26:15;;;;;;;10.20;6.50;;;12.50;99.90;;;;;;5074386;28;20393;-87
2022/09/06 09:29:12;;;;;;;42.17;30.35;;;12.40;99.90;;;;;;5073344;28;20366;-78
2022/09/06 09:31:57;;;;;;;51.08;35.90;;;12.40;99.90;;;;;;5075696;28;20405;-82
2022/09/06 09:34:33;;;;;;;37.97;25.48;;;12.40;99.90;;;;;;5073308;28;20386;-81
2022/09/06 09:37:21;;;;;;;15.50;11.05;;;12.50;99.90;;;;;;5073171;28;20378;-78
2022/09/06 09:39:51;;;;;;;16.73;11.82;;;12.50;99.90;;;;;;5074589;28;20912;-80
2022/09/06 09:42:36;;;;;;;20.80;12.35;;;12.60;99.90;;;;;;5075307;28;20374;-79
2022/09/06 09:45:25;;;;;;;17.27;11.20;;;12.60;99.90;;;;;;5072628;28;20459;-80
2022/09/06 09:47:52;;;;;;;13.95;8.57;;;12.70;99.90;;;;;;5073166;28;20453;-81
2022/09/06 09:50:30;;;;;;;15.20;8.50;;;12.80;99.90;;;;;;5080457;28;20841;-79
2022/09/06 09:53:12;;;;;;;6.35;2.15;;;12.80;99.90;;;;;;5092356;28;20453;-79
2022/09/06 09:55:40;;;;;;;5.15;2.08;;;12.90;99.90;;;;;;5093460;28;20376;-79
2022/09/06 09:58:26;;;;;;;6.70;1.97;;;12.90;99.90;;;;;;5092750;28;20482;-81
2022/09/06 10:01:16;;;;;;;5.70;2.00;;;12.90;99.90;;;;;;5095149;28;20379;-82
2022/09/06 10:03:43;;;;;;;4.75;1.80;;;13.00;99.90;;;;;;5095747;28;20390;-82
2022/09/06 10:06:14;;;;;;;5.53;1.70;;;13.00;99.90;;;;;;5095709;28;20383;-84
2022/09/06 10:08:44;;;;;;;6.00;2.45;;;12.90;99.90;;;;;;5108734;28;20398;-83
2022/09/06 10:11:13;;;;;;;4.43;2.20;;;12.90;99.90;;;;;;5117738;28;20398;-83
2022/09/06 10:13:43;;;;;;;7.63;2.50;;;12.90;99.90;;;;;;5117317;28;20370;-84
2022/09/06 10:16:11;;;;;;;10.20;2.40;;;12.90;99.90;;;;;;5117160;28;20367;-79
2022/09/06 10:18:42;;;;;;;8.32;2.40;;;12.80;99.90;;;;;;5117344;28;20366;-79
2022/09/06 10:21:11;;;;;;;11.40;2.70;;;12.80;99.90;;;;;;5114825;28;20379;-78
2022/09/06 10:23:47;;;;;;;14.85;3.25;;;12.80;99.90;;;;;;5116944;28;20512;-78
2022/09/06 10:26:29;;;;;;;16.83;4.07;;;12.80;99.90;;;;;;5117139;28;20852;-79
2022/09/06 10:29:05;;;;;;;19.53;4.87;;;12.80;99.90;;;;;;5115344;28;20443;-77
2022/09/06 10:31:50;;;;;;;16.83;4.28;;;12.80;99.90;;;;;;5114668;28;20478;-77
2022/09/06 10:34:35;;;;;;;20.17;4.22;;;12.80;99.90;;;;;;5112979;28;20362;-77
2022/09/06 10:37:29;;;;;;;18.48;4.47;;;12.80;99.90;;;;;;5098273;28;20402;-78
2022/09/06 10:40:08;;;;;;;12.43;4.35;;;12.70;99.90;;;;;;5116076;28;20392;-79
2022/09/06 10:42:51;;;;;;;16.93;4.07;;;12.70;99.90;;;;;;5119407;28;20864;-78
2022/09/06 10:45:37;;;;;;;21.10;3.42;;;12.60;99.90;;;;;;5119901;28;20784;-80
2022/09/06 10:48:06;;;;;;;23.33;3.50;;;12.60;99.90;;;;;;5119155;28;20366;-79
2022/09/06 10:51:11;;;;;;;16.20;3.45;;;12.60;99.90;;;;;;5118791;28;20391;-77
2022/09/06 10:53:57;;;;;;;12.35;2.83;;;12.60;99.90;;;;;;5119940;28;20746;-78
2022/09/06 10:56:39;;;;;;;12.80;2.50;;;12.60;99.90;;;;;;5120003;28;20418;-78
2022/09/06 10:59:25;;;;;;;12.90;2.47;;;12.60;99.90;;;;;;5120289;28;20370;-78
2022/09/06 11:02:10;;;;;;;9.48;2.60;;;12.60;99.90;;;;;;5119345;28;20363;-77
2022/09/06 11:04:40;;;;;;;9.65;3.08;;;12.60;99.90;;;;;;5120366;28;20453;-78
2022/09/06 11:07:29;;;;;;;15.68;7.10;;;12.60;99.90;;;;;;5119061;28;20446;-77
2022/09/06 11:10:17;;;;;;;12.82;6.30;;;12.60;99.90;;;;;;5118654;28;20451;-76
2022/09/06 11:13:07;;;;;;;11.05;5.53;;;12.60;99.90;;;;;;5119674;28;20413;-79
2022/09/06 11:16:27;;;;;;;11.23;4.20;;;12.60;99.90;;;;;;5118268;28;20367;-79
2022/09/06 11:19:03;;;;;;;12.25;3.03;;;12.50;99.90;;;;;;5113716;28;20409;-77
2022/09/06 11:21:39;;;;;;;18.80;3.03;;;12.50;99.90;;;;;;5117207;28;20704;-77
2022/09/06 11:24:15;;;;;;;19.20;2.85;;;12.50;99.90;;;;;;5117336;28;20382;-78
2022/09/06 11:27:16;;;;;;;32.85;3.83;;;12.50;99.90;;;;;;5116940;28;20434;-78
2022/09/06 11:29:46;;;;;;;28.70;3.53;;;12.50;99.90;;;;;;5117195;28;20394;-79
2022/09/06 11:32:31;;;;;;;16.80;2.70;;;12.40;99.90;;;;;;5117127;28;20362;-78
2022/09/06 11:35:06;;;;;;;12.85;2.55;;;12.40;99.90;;;;;;5117245;28;20374;-77
2022/09/06 11:37:43;;;;;;;7.85;2.42;;;12.40;99.90;;;;;;5116134;28;20424;-77
2022/09/06 11:40:23;;;;;;;9.32;2.00;;;12.30;99.90;;;;;;5115891;28;20370;-76
2022/09/06 11:42:50;;;;;;;10.45;1.67;;;12.40;99.90;;;;;;5116694;28;20367;-77
2022/09/06 11:45:48;;;;;;;6.47;1.83;;;12.40;99.90;;;;;;5080620;28;20367;-78
2022/09/06 11:48:33;;;;;;;8.77;3.08;;;12.30;99.90;;;;;;5115956;28;20371;-77
2022/09/06 11:51:09;;;;;;;7.40;2.72;;;12.30;99.90;;;;;;5114782;28;20397;-80
2022/09/06 11:53:48;;;;;;;5.70;2.40;;;12.30;99.90;;;;;;5116806;28;20351;-79
2022/09/06 11:56:49;;;;;;;6.78;2.95;;;12.20;99.90;;;;;;5097844;28;20387;-79
2022/09/06 11:59:20;;;;;;;8.45;2.80;;;12.10;99.90;;;;;;5115313;28;20467;-77
2022/09/06 12:02:02;;;;;;;10.52;2.90;;;12.20;99.90;;;;;;5116560;28;20371;-76
2022/09/06 12:05:03;;;;;;;7.10;2.90;;;12.10;99.90;;;;;;5115735;28;20367;-77
2022/09/06 12:07:32;;;;;;;6.30;2.80;;;12.00;99.90;;;;;;5115528;28;20449;-79
2022/09/06 12:10:28;;;;;;;8.95;2.90;;;11.90;99.90;;;;;;5115349;28;20394;-77
2022/09/06 12:12:55;;;;;;;25.58;3.50;;;11.80;99.90;;;;;;5115630;28;20411;-77
2022/09/06 12:15:26;;;;;;;25.23;4.13;;;11.70;99.90;;;;;;5115331;28;20367;-80
2022/09/06 12:17:53;;;;;;;17.50;3.27;;;11.70;99.90;;;;;;5116673;28;20446;-78
2022/09/06 12:20:48;;;;;;;12.05;3.13;;;11.60;99.90;;;;;;5115432;28;20424;-78
2022/09/06 12:23:36;;;;;;;17.42;3.22;;;11.60;99.90;;;;;;5114986;28;20505;-78
2022/09/06 12:26:08;;;;;;;14.20;3.10;;;11.50;99.90;;;;;;5115056;28;20846;-76
2022/09/06 12:28:35;;;;;;;17.65;3.20;;;11.40;99.90;;;;;;5115970;28;20424;-81
2022/09/06 12:31:28;;;;;;;20.10;3.45;;;11.40;99.90;;;;;;5117189;28;20391;-77
2022/09/06 12:33:57;;;;;;;19.45;3.65;;;11.30;99.90;;;;;;5101806;28;20508;-79
2022/09/06 12:36:31;;;;;;;21.67;3.60;;;11.30;99.90;;;;;;5120463;28;20444;-79
2022/09/06 12:39:01;;;;;;;17.63;3.70;;;11.30;99.90;;;;;;5116793;28;20377;-76
2022/09/06 12:41:31;;;;;;;27.63;4.03;;;11.30;99.90;;;;;;5116125;28;20409;-79
2022/09/06 12:44:00;;;;;;;13.10;2.93;;;11.20;99.90;;;;;;5097206;28;20371;-80
2022/09/06 12:46:30;;;;;;;8.13;2.75;;;11.20;99.90;;;;;;5115374;28;20375;-77
2022/09/06 12:49:14;;;;;;;8.90;2.60;;;11.20;99.90;;;;;;5114920;28;20400;-77
2022/09/06 12:51:42;;;;;;;5.85;3.33;;;11.10;99.90;;;;;;5114989;28;20397;-79
2022/09/06 12:54:25;;;;;;;10.02;3.97;;;11.10;99.90;;;;;;5114404;28;20899;-77
2022/09/06 12:57:10;;;;;;;11.10;4.55;;;11.00;99.90;;;;;;5114599;28;20873;-77
2022/09/06 12:59:37;;;;;;;12.70;5.30;;;10.90;99.90;;;;;;5114601;28;20367;-78
2022/09/06 13:02:14;;;;;;;12.35;5.32;;;10.80;99.90;;;;;;5114286;28;20374;-77
2022/09/06 13:04:45;;;;;;;10.47;4.70;;;10.70;99.90;;;;;;5114342;28;20363;-77
2022/09/06 13:07:15;;;;;;;9.80;4.10;;;10.50;99.90;;;;;;5096234;28;20378;-79
2022/09/06 13:09:47;;;;;;;9.60;3.65;;;10.40;99.90;;;;;;5114117;28;20391;-78
2022/09/06 13:12:28;;;;;;;10.18;3.30;;;10.30;99.90;;;;;;5114050;28;20930;-79
2022/09/06 13:14:58;;;;;;;8.07;3.30;;;10.30;99.90;;;;;;5113922;28;20853;-76
2022/09/06 13:17:27;;;;;;;8.30;3.97;;;10.20;99.90;;;;;;5113959;28;20366;-78